Time;durP1;ratioP1;P1;durP2;ratioP2;P2;SDS_P1;SDS_P2;PMS_P1;PMS_P2;Temp;Humidity;BMP_temperature;BMP_pressure;BME280_temperature;BME280_humidity;BME280_pressure;Samples;Min_cycle;Max_cycle;Signal;HPM_P1;HPM_P2
2022/09/21 00:00:29;;;;;;;5.07;2.60;;;7.00;99.90;;;;;;5010396;28;20353;-54
2022/09/21 00:02:56;;;;;;;5.93;3.45;;;7.00;99.90;;;;;;5010223;28;20503;-50
2022/09/21 00:05:23;;;;;;;5.43;2.90;;;7.00;99.90;;;;;;5010098;28;20034;-51
2022/09/21 00:07:49;;;;;;;5.85;2.97;;;7.00;99.90;;;;;;5009146;28;20500;-53
2022/09/21 00:10:15;;;;;;;4.13;3.28;;;6.90;99.90;;;;;;4994266;28;20040;-50
2022/09/21 00:12:41;;;;;;;4.18;2.90;;;6.90;99.90;;;;;;5009859;28;20022;-53
2022/09/21 00:15:08;;;;;;;4.18;2.55;;;6.90;99.90;;;;;;5010247;28;20022;-51
2022/09/21 00:17:35;;;;;;;5.10;2.88;;;6.90;99.90;;;;;;5010464;28;20026;-53
2022/09/21 00:20:04;;;;;;;3.65;2.80;;;6.80;99.90;;;;;;5006041;28;20107;-49
2022/09/21 00:22:34;;;;;;;3.85;2.70;;;6.80;99.90;;;;;;4992307;28;20026;-54
2022/09/21 00:25:02;;;;;;;3.55;2.50;;;6.80;99.90;;;;;;5009875;28;20030;-53
2022/09/21 00:27:28;;;;;;;4.78;2.58;;;6.70;99.90;;;;;;5010016;28;20040;-51
2022/09/21 00:30:02;;;;;;;4.68;2.40;;;6.70;99.90;;;;;;5009546;28;20352;-50
2022/09/21 00:32:30;;;;;;;5.78;2.83;;;6.70;99.90;;;;;;5009705;28;20026;-50
2022/09/21 00:34:56;;;;;;;3.17;2.50;;;6.70;99.90;;;;;;5009781;28;20468;-50
2022/09/21 00:37:23;;;;;;;4.88;3.13;;;6.70;99.90;;;;;;5009730;28;20025;-50
2022/09/21 00:39:49;;;;;;;6.30;3.25;;;6.60;99.90;;;;;;5009676;28;20017;-51
2022/09/21 00:42:27;;;;;;;3.42;2.55;;;6.60;99.90;;;;;;5005888;28;20029;-50
2022/09/21 00:44:53;;;;;;;4.13;2.85;;;6.60;99.90;;;;;;4992064;28;20028;-55
2022/09/21 00:47:44;;;;;;;9.10;3.00;;;6.60;99.90;;;;;;5009645;28;20109;-52
2022/09/21 00:50:14;;;;;;;4.35;2.92;;;6.60;99.90;;;;;;5009902;28;20036;-50
2022/09/21 00:52:44;;;;;;;4.82;3.08;;;6.60;99.90;;;;;;5009573;28;20094;-51
2022/09/21 00:55:33;;;;;;;4.55;2.20;;;6.60;99.90;;;;;;5009481;28;20022;-50
2022/09/21 00:58:03;;;;;;;5.10;3.22;;;6.50;99.90;;;;;;5008814;28;20114;-50
2022/09/21 01:00:29;;;;;;;4.13;2.60;;;6.50;99.90;;;;;;5007003;28;20033;-50
2022/09/21 01:03:00;;;;;;;3.25;2.58;;;6.50;99.90;;;;;;5006631;28;20026;-52
2022/09/21 01:05:26;;;;;;;4.32;2.65;;;6.50;99.90;;;;;;5008726;28;20026;-55
2022/09/21 01:07:53;;;;;;;3.65;2.40;;;6.50;99.90;;;;;;5007618;28;20026;-52
2022/09/21 01:10:20;;;;;;;4.75;2.75;;;6.50;99.90;;;;;;5008921;28;20645;-51
2022/09/21 01:12:53;;;;;;;4.75;2.80;;;6.40;99.90;;;;;;5008937;28;20034;-51
2022/09/21 01:15:34;;;;;;;2.88;2.17;;;6.40;99.90;;;;;;4994134;28;20113;-50
2022/09/21 01:18:18;;;;;;;4.68;2.13;;;6.40;99.90;;;;;;5009148;28;20029;-53
2022/09/21 01:21:07;;;;;;;6.47;2.67;;;6.30;99.90;;;;;;5009075;28;20075;-51
2022/09/21 01:23:58;;;;;;;4.15;2.60;;;6.30;99.90;;;;;;4998077;28;20387;-53
2022/09/21 01:26:54;;;;;;;3.70;2.63;;;6.30;99.90;;;;;;4996661;28;20037;-53
2022/09/21 01:29:39;;;;;;;3.78;2.72;;;6.30;99.90;;;;;;5008966;28;20041;-52
2022/09/21 01:32:19;;;;;;;3.13;2.30;;;6.20;99.90;;;;;;5008948;28;20381;-50
2022/09/21 01:35:02;;;;;;;5.22;2.58;;;6.20;99.90;;;;;;5009186;28;20054;-52
2022/09/21 01:37:44;;;;;;;4.78;2.63;;;6.20;99.90;;;;;;5006594;28;20104;-50
2022/09/21 01:40:16;;;;;;;5.47;2.85;;;6.20;99.90;;;;;;5009281;28;20033;-51
2022/09/21 01:42:44;;;;;;;5.70;3.00;;;6.20;99.90;;;;;;5009094;28;20117;-51
2022/09/21 01:45:15;;;;;;;2.92;2.33;;;6.10;99.90;;;;;;5010193;28;20018;-51
2022/09/21 01:47:42;;;;;;;8.18;3.13;;;6.10;99.90;;;;;;5008699;28;20068;-54
2022/09/21 01:50:10;;;;;;;2.97;2.63;;;6.10;99.90;;;;;;5009151;28;20026;-50
2022/09/21 01:52:44;;;;;;;5.47;2.95;;;6.10;99.90;;;;;;5012492;28;20046;-51
2022/09/21 01:55:16;;;;;;;6.43;2.80;;;6.10;99.90;;;;;;5012815;28;20022;-51
2022/09/21 01:57:57;;;;;;;8.18;2.85;;;6.10;99.90;;;;;;5012491;28;20026;-50
2022/09/21 02:00:24;;;;;;;4.10;2.22;;;6.00;99.90;;;;;;4999170;28;20018;-50
2022/09/21 02:02:52;;;;;;;4.68;2.60;;;6.00;99.90;;;;;;5012409;28;20105;-51
2022/09/21 02:05:20;;;;;;;3.10;2.35;;;6.00;99.90;;;;;;5012741;28;20026;-55
2022/09/21 02:07:47;;;;;;;4.15;2.90;;;5.90;99.90;;;;;;5011671;28;20075;-51
2022/09/21 02:10:19;;;;;;;2.95;2.70;;;5.90;99.90;;;;;;5012485;28;20032;-51
2022/09/21 02:12:46;;;;;;;4.38;2.78;;;5.90;99.90;;;;;;5012266;28;20096;-49
2022/09/21 02:15:12;;;;;;;5.13;2.42;;;5.90;99.90;;;;;;5012183;28;20018;-53
2022/09/21 02:17:54;;;;;;;3.33;2.25;;;5.80;99.90;;;;;;5012092;28;20052;-54
2022/09/21 02:20:30;;;;;;;3.58;2.67;;;5.80;99.90;;;;;;5012575;28;20025;-53
2022/09/21 02:23:06;;;;;;;3.50;2.53;;;5.70;99.90;;;;;;5011592;28;20064;-53
2022/09/21 02:25:44;;;;;;;4.00;2.45;;;5.80;99.90;;;;;;5012128;28;20030;-54
2022/09/21 02:28:22;;;;;;;4.63;2.92;;;5.80;99.90;;;;;;5011846;28;20034;-52
2022/09/21 02:30:59;;;;;;;3.42;2.45;;;5.80;99.90;;;;;;5004836;28;20492;-53
2022/09/21 02:33:36;;;;;;;4.50;2.60;;;5.70;99.90;;;;;;4999465;28;20026;-53
2022/09/21 02:36:10;;;;;;;5.95;2.80;;;5.70;99.90;;;;;;4997463;28;20488;-52
2022/09/21 02:38:51;;;;;;;5.00;2.85;;;5.70;99.90;;;;;;5012216;28;20030;-50
2022/09/21 02:41:37;;;;;;;2.53;2.33;;;5.60;99.90;;;;;;5009552;28;20384;-55
2022/09/21 02:44:11;;;;;;;3.83;2.60;;;5.60;99.90;;;;;;5011793;28;20064;-51
2022/09/21 02:46:47;;;;;;;3.70;2.78;;;5.60;99.90;;;;;;5011927;28;20108;-51
2022/09/21 02:49:27;;;;;;;3.60;2.95;;;5.60;99.90;;;;;;5005877;28;20025;-51
2022/09/21 02:51:58;;;;;;;6.90;3.38;;;5.60;99.90;;;;;;5002786;28;20471;-50
2022/09/21 02:54:28;;;;;;;6.03;3.30;;;5.60;99.90;;;;;;5005219;28;20385;-50
2022/09/21 02:56:55;;;;;;;4.38;3.40;;;5.60;99.90;;;;;;4984197;28;20080;-51
2022/09/21 02:59:22;;;;;;;4.47;3.58;;;5.60;99.90;;;;;;5002252;28;20155;-51
2022/09/21 03:01:48;;;;;;;6.38;3.65;;;5.60;99.90;;;;;;5006651;28;20028;-53
2022/09/21 03:04:15;;;;;;;4.65;3.30;;;5.60;99.90;;;;;;5002052;28;20083;-51
2022/09/21 03:06:40;;;;;;;5.57;3.75;;;5.60;99.90;;;;;;5006641;28;20026;-52
2022/09/21 03:09:06;;;;;;;5.72;3.17;;;5.60;99.90;;;;;;5005024;28;20043;-51
2022/09/21 03:11:32;;;;;;;4.82;2.88;;;5.50;99.90;;;;;;5008828;28;20529;-52
2022/09/21 03:13:58;;;;;;;9.90;3.78;;;5.50;99.90;;;;;;5005529;28;20064;-53
2022/09/21 03:16:24;;;;;;;4.85;3.25;;;5.50;99.90;;;;;;5002871;28;20049;-54
2022/09/21 03:18:50;;;;;;;3.85;3.38;;;5.50;99.90;;;;;;5007124;28;20034;-52
2022/09/21 03:21:15;;;;;;;4.80;3.15;;;5.50;99.90;;;;;;5002934;28;20187;-51
2022/09/21 03:23:41;;;;;;;4.72;3.38;;;5.50;99.90;;;;;;5007727;28;20029;-51
2022/09/21 03:26:07;;;;;;;5.97;3.53;;;5.50;99.90;;;;;;5003644;28;20030;-51
2022/09/21 03:28:33;;;;;;;6.15;3.28;;;5.50;99.90;;;;;;5003518;28;20026;-51
2022/09/21 03:30:59;;;;;;;7.03;3.75;;;5.50;99.90;;;;;;5005954;28;20033;-51
2022/09/21 03:33:24;;;;;;;6.45;3.05;;;5.50;99.90;;;;;;5003110;28;20025;-53
2022/09/21 03:35:51;;;;;;;7.55;3.42;;;5.50;99.90;;;;;;5007263;28;20025;-52
2022/09/21 03:38:17;;;;;;;8.90;3.45;;;5.40;99.90;;;;;;5004574;28;20033;-54
2022/09/21 03:40:47;;;;;;;4.28;3.53;;;5.40;99.90;;;;;;5008435;28;20025;-51
2022/09/21 03:43:14;;;;;;;3.50;3.20;;;5.40;99.90;;;;;;5002579;28;20090;-51
2022/09/21 03:45:40;;;;;;;5.30;3.53;;;5.40;99.90;;;;;;5004866;28;20383;-51
2022/09/21 03:48:06;;;;;;;3.78;3.30;;;5.40;99.90;;;;;;5005514;28;20025;-52
2022/09/21 03:50:32;;;;;;;7.15;3.25;;;5.40;99.90;;;;;;5004115;28;20030;-50
2022/09/21 03:52:58;;;;;;;4.60;3.22;;;5.30;99.90;;;;;;5006876;28;20080;-50
2022/09/21 03:55:25;;;;;;;3.83;3.42;;;5.20;99.90;;;;;;5003766;28;20022;-51
2022/09/21 03:57:51;;;;;;;3.92;3.40;;;5.20;99.90;;;;;;5007820;28;20040;-55
2022/09/21 04:00:17;;;;;;;3.47;3.17;;;5.20;99.90;;;;;;5004233;28;20101;-50
2022/09/21 04:02:42;;;;;;;4.28;3.88;;;5.10;99.90;;;;;;5005262;28;20433;-51
2022/09/21 04:05:10;;;;;;;7.85;4.60;;;5.10;99.90;;;;;;5006509;28;20073;-50
2022/09/21 04:07:36;;;;;;;6.70;4.13;;;5.10;99.90;;;;;;5004618;28;20384;-50
2022/09/21 04:10:04;;;;;;;7.05;4.60;;;5.10;99.90;;;;;;5007721;28;20101;-51
2022/09/21 04:12:31;;;;;;;7.72;5.22;;;5.10;99.90;;;;;;4992254;28;20026;-52
2022/09/21 04:14:57;;;;;;;5.15;4.65;;;5.10;99.90;;;;;;5005639;28;20492;-50
2022/09/21 04:17:23;;;;;;;6.93;5.10;;;5.10;99.90;;;;;;5002640;28;20049;-50
2022/09/21 04:19:48;;;;;;;4.78;4.07;;;5.00;99.90;;;;;;5006043;28;20022;-50
2022/09/21 04:22:14;;;;;;;9.45;4.65;;;5.00;99.90;;;;;;5000979;28;20022;-51
2022/09/21 04:24:39;;;;;;;6.22;4.78;;;5.00;99.90;;;;;;5005613;28;20035;-53
2022/09/21 04:27:09;;;;;;;4.65;4.25;;;5.00;99.90;;;;;;5008128;28;20384;-50
2022/09/21 04:29:36;;;;;;;6.45;4.97;;;4.90;99.90;;;;;;4999117;28;20073;-50
2022/09/21 04:32:02;;;;;;;5.03;4.43;;;4.90;99.90;;;;;;5006738;28;20480;-52
2022/09/21 04:34:29;;;;;;;6.25;4.40;;;4.90;99.90;;;;;;5001961;28;20022;-51
2022/09/21 04:36:55;;;;;;;6.43;4.65;;;4.90;99.90;;;;;;5006637;28;20018;-50
2022/09/21 04:39:22;;;;;;;5.90;5.05;;;5.00;99.90;;;;;;5004709;28;20034;-51
2022/09/21 04:41:48;;;;;;;5.85;4.97;;;5.00;99.90;;;;;;5004961;28;20030;-51
2022/09/21 04:44:14;;;;;;;6.63;4.95;;;4.90;99.90;;;;;;4996356;28;20396;-51
2022/09/21 04:46:41;;;;;;;6.13;4.47;;;4.90;99.90;;;;;;4999151;28;20120;-52
2022/09/21 04:49:07;;;;;;;6.05;4.57;;;4.90;99.90;;;;;;5007063;28;20029;-53
2022/09/21 04:51:33;;;;;;;7.57;4.43;;;4.90;99.90;;;;;;5001164;28;20045;-52
2022/09/21 04:53:59;;;;;;;6.35;4.50;;;4.80;99.90;;;;;;5007193;28;20018;-54
2022/09/21 04:56:24;;;;;;;5.18;4.32;;;4.80;99.90;;;;;;5004441;28;20025;-54
2022/09/21 04:58:50;;;;;;;7.95;4.80;;;4.80;99.90;;;;;;5002491;28;20058;-54
2022/09/21 05:01:15;;;;;;;5.13;3.80;;;4.80;99.90;;;;;;5002825;28;20097;-55
2022/09/21 05:03:41;;;;;;;5.47;4.68;;;4.80;99.90;;;;;;5006276;28;20036;-54
2022/09/21 05:06:07;;;;;;;5.10;4.20;;;4.80;99.90;;;;;;5001691;28;20397;-51
2022/09/21 05:11:18;;;;;;;5.32;4.50;;;4.80;99.90;;;;;;5004432;28;20120;-53
2022/09/21 05:13:44;;;;;;;6.57;4.93;;;4.80;99.90;;;;;;5000305;28;20025;-51
2022/09/21 05:16:10;;;;;;;11.48;5.28;;;4.80;99.90;;;;;;5004537;28;20033;-50
2022/09/21 05:18:36;;;;;;;5.45;4.47;;;4.80;99.90;;;;;;5002723;28;20026;-50
2022/09/21 05:21:03;;;;;;;6.20;4.60;;;4.80;99.90;;;;;;5004554;28;20033;-53
2022/09/21 05:23:30;;;;;;;6.55;4.80;;;4.80;99.90;;;;;;5002499;28;20045;-50
2022/09/21 05:25:56;;;;;;;6.18;4.95;;;4.80;99.90;;;;;;5007292;28;20053;-50
2022/09/21 05:28:23;;;;;;;8.77;5.20;;;4.80;99.90;;;;;;4990391;28;20030;-53
2022/09/21 05:30:56;;;;;;;7.80;5.05;;;4.80;99.90;;;;;;5003659;28;20021;-50
2022/09/21 05:33:23;;;;;;;6.78;4.85;;;4.80;99.90;;;;;;4994838;28;20029;-53
2022/09/21 05:36:00;;;;;;;6.22;4.78;;;4.80;99.90;;;;;;5005241;28;20431;-51
2022/09/21 05:38:26;;;;;;;5.28;4.55;;;4.80;99.90;;;;;;4996579;28;20114;-52
2022/09/21 05:40:52;;;;;;;4.82;4.32;;;4.80;99.90;;;;;;5006936;28;20100;-50
2022/09/21 05:43:18;;;;;;;6.10;4.57;;;4.80;99.90;;;;;;5009994;28;20044;-52
2022/09/21 05:45:54;;;;;;;9.45;4.53;;;4.80;99.90;;;;;;5007760;28;20507;-54
2022/09/21 05:48:27;;;;;;;4.63;4.22;;;4.80;99.90;;;;;;4996455;28;20396;-53
2022/09/21 05:51:14;;;;;;;6.78;4.70;;;4.80;99.90;;;;;;5008537;28;20373;-50
2022/09/21 05:54:03;;;;;;;5.20;4.70;;;4.90;99.90;;;;;;4996226;28;20297;-51
2022/09/21 05:56:41;;;;;;;6.18;5.20;;;4.90;99.90;;;;;;5001078;28;20026;-51
2022/09/21 05:59:33;;;;;;;6.45;5.18;;;4.90;99.90;;;;;;5006631;28;20033;-51
2022/09/21 06:02:16;;;;;;;5.28;4.78;;;4.90;99.90;;;;;;5004597;28;20057;-52
2022/09/21 06:04:42;;;;;;;5.90;4.53;;;4.90;99.90;;;;;;5009458;28;20057;-53
2022/09/21 06:07:07;;;;;;;9.23;5.20;;;4.90;99.90;;;;;;5005950;28;20050;-50
2022/09/21 06:09:33;;;;;;;4.65;4.25;;;5.00;99.90;;;;;;5010264;28;20034;-53
2022/09/21 06:11:58;;;;;;;6.40;4.35;;;5.00;99.90;;;;;;5006432;28;20087;-50
2022/09/21 06:14:25;;;;;;;6.43;5.45;;;5.00;99.90;;;;;;5003633;28;20033;-50
2022/09/21 06:16:51;;;;;;;5.82;4.50;;;5.00;99.90;;;;;;5007965;28;20499;-50
2022/09/21 06:19:17;;;;;;;6.43;5.20;;;5.00;99.90;;;;;;5004133;28;20137;-51
2022/09/21 06:21:42;;;;;;;6.00;4.65;;;5.10;99.90;;;;;;5008582;28;20101;-50
2022/09/21 06:24:08;;;;;;;7.07;5.65;;;5.10;99.90;;;;;;5005771;28;20517;-51
2022/09/21 06:26:34;;;;;;;6.55;5.50;;;5.20;99.90;;;;;;5009117;28;20097;-51
2022/09/21 06:28:59;;;;;;;8.77;5.80;;;5.20;99.90;;;;;;5005557;28;20041;-53
2022/09/21 06:31:28;;;;;;;7.50;5.63;;;5.20;99.90;;;;;;5003295;28;20025;-50
2022/09/21 06:33:54;;;;;;;6.57;5.47;;;5.30;99.90;;;;;;4999558;28;20029;-52
2022/09/21 06:36:20;;;;;;;6.00;5.40;;;5.30;99.90;;;;;;5003524;28;20526;-54
2022/09/21 06:38:45;;;;;;;7.85;5.72;;;5.30;99.90;;;;;;5008237;28;20034;-51
2022/09/21 06:41:11;;;;;;;8.65;5.65;;;5.40;99.90;;;;;;5005076;28;20141;-56
2022/09/21 06:43:37;;;;;;;6.47;5.38;;;5.50;99.90;;;;;;5009767;28;20026;-50
2022/09/21 06:46:02;;;;;;;6.50;5.90;;;5.50;99.90;;;;;;5005293;28;20029;-52
2022/09/21 06:48:30;;;;;;;6.57;5.22;;;5.60;99.90;;;;;;5003494;28;20030;-52
2022/09/21 06:50:59;;;;;;;9.27;6.78;;;5.60;99.90;;;;;;5007345;28;20384;-51
2022/09/21 06:53:26;;;;;;;7.80;6.20;;;5.70;99.90;;;;;;4997236;28;20552;-53
2022/09/21 06:55:52;;;;;;;7.28;6.43;;;5.80;99.90;;;;;;5007927;28;20205;-50
2022/09/21 06:58:18;;;;;;;8.88;6.32;;;5.90;99.90;;;;;;5004886;28;20025;-53
2022/09/21 07:00:44;;;;;;;7.88;6.50;;;6.00;99.90;;;;;;5001126;28;20026;-50
2022/09/21 07:03:12;;;;;;;7.55;6.82;;;6.00;99.90;;;;;;5009463;28;20037;-53
2022/09/21 07:05:38;;;;;;;7.55;6.35;;;6.10;99.90;;;;;;4984897;28;20062;-53
2022/09/21 07:08:05;;;;;;;7.80;6.97;;;6.20;99.90;;;;;;5009747;28;20117;-50
2022/09/21 07:10:30;;;;;;;9.23;7.68;;;6.30;99.90;;;;;;5006390;28;20442;-52
2022/09/21 07:13:02;;;;;;;10.02;8.65;;;6.40;99.90;;;;;;5001462;28;20030;-53
2022/09/21 07:15:29;;;;;;;8.93;7.45;;;6.60;99.90;;;;;;5008170;28;20496;-50
2022/09/21 07:17:54;;;;;;;7.88;6.85;;;6.70;99.90;;;;;;5002469;28;20050;-51
2022/09/21 07:20:20;;;;;;;11.02;8.68;;;6.90;99.90;;;;;;5009648;28;20052;-53
2022/09/21 07:22:46;;;;;;;11.57;8.77;;;7.00;99.90;;;;;;5002224;28;20057;-50
2022/09/21 07:25:11;;;;;;;9.63;8.25;;;7.20;99.90;;;;;;5011015;28;20026;-52
2022/09/21 07:27:37;;;;;;;15.60;9.00;;;7.30;99.90;;;;;;5005213;28;20092;-54
2022/09/21 07:30:04;;;;;;;13.05;9.48;;;7.50;99.90;;;;;;5000595;28;20134;-53
2022/09/21 07:32:30;;;;;;;10.38;8.23;;;7.70;99.90;;;;;;5007788;28;20022;-51
2022/09/21 07:34:56;;;;;;;14.73;9.20;;;7.80;99.90;;;;;;5002410;28;20034;-52
2022/09/21 07:37:26;;;;;;;9.27;8.35;;;7.90;99.90;;;;;;5010031;28;20034;-50
2022/09/21 07:39:52;;;;;;;10.43;8.00;;;8.00;99.90;;;;;;4999408;28;20029;-50
2022/09/21 07:42:19;;;;;;;10.85;7.60;;;8.20;99.90;;;;;;5011296;28;20411;-53
2022/09/21 07:44:45;;;;;;;11.00;8.20;;;8.30;99.90;;;;;;5004402;28;20049;-50
2022/09/21 07:47:11;;;;;;;8.82;7.40;;;8.60;99.90;;;;;;5003166;28;20037;-53
2022/09/21 07:49:37;;;;;;;7.72;6.93;;;8.80;99.90;;;;;;5005789;28;20037;-51
2022/09/21 07:52:02;;;;;;;8.82;6.88;;;8.90;99.90;;;;;;5002455;28;20014;-53
2022/09/21 07:54:28;;;;;;;7.60;6.75;;;9.10;99.90;;;;;;5009586;28;20026;-51
2022/09/21 07:59:37;;;;;;;7.13;6.03;;;9.50;99.90;;;;;;5001854;28;20088;-54
2022/09/21 08:02:03;;;;;;;6.20;5.70;;;9.80;99.90;;;;;;5010776;28;20528;-52
2022/09/21 08:04:28;;;;;;;5.65;4.95;;;9.90;99.90;;;;;;5010872;28;20029;-52
2022/09/21 08:06:54;;;;;;;5.90;5.30;;;10.10;99.90;;;;;;4993169;28;20037;-51
2022/09/21 08:09:20;;;;;;;5.45;4.10;;;10.30;99.90;;;;;;5010643;28;20527;-51
2022/09/21 08:11:45;;;;;;;4.10;3.60;;;10.40;99.90;;;;;;5010546;28;20026;-51
2022/09/21 08:14:18;;;;;;;6.40;3.65;;;10.60;99.90;;;;;;5010665;28;20014;-53
2022/09/21 08:16:45;;;;;;;3.38;2.42;;;10.80;99.90;;;;;;5010804;28;20022;-50
2022/09/21 08:19:11;;;;;;;4.85;2.63;;;11.00;99.90;;;;;;5010663;28;20022;-53
2022/09/21 08:21:37;;;;;;;2.28;1.85;;;11.20;99.90;;;;;;5010412;28;20037;-52
2022/09/21 08:24:03;;;;;;;4.60;2.47;;;11.40;99.90;;;;;;5010518;28;20029;-54
2022/09/21 08:26:28;;;;;;;1.88;1.52;;;11.60;99.90;;;;;;5010549;28;20072;-50
2022/09/21 08:28:57;;;;;;;2.63;1.98;;;11.70;99.90;;;;;;5010373;28;20025;-53
2022/09/21 08:31:24;;;;;;;1.75;1.38;;;11.90;99.90;;;;;;5010238;28;20492;-52
2022/09/21 08:33:51;;;;;;;2.85;1.30;;;12.10;99.90;;;;;;5010433;28;20033;-52
2022/09/21 08:36:18;;;;;;;4.05;1.48;;;12.20;99.90;;;;;;5010655;28;20105;-52
2022/09/21 08:38:44;;;;;;;3.30;1.45;;;12.30;99.90;;;;;;5010390;28;20030;-53
2022/09/21 08:41:21;;;;;;;1.50;1.10;;;12.50;99.90;;;;;;5010060;28;20566;-56
2022/09/21 08:43:53;;;;;;;2.72;1.02;;;12.60;99.90;;;;;;5010338;28;20500;-52
2022/09/21 08:46:22;;;;;;;1.63;1.23;;;12.70;99.90;;;;;;4993224;28;20544;-50
2022/09/21 08:49:14;;;;;;;2.33;1.23;;;12.80;99.90;;;;;;5009658;28;20030;-53
2022/09/21 08:51:55;;;;;;;1.25;1.15;;;12.80;99.90;;;;;;4996707;28;20261;-50
2022/09/21 08:54:33;;;;;;;1.75;1.10;;;12.90;99.90;;;;;;4998147;28;20017;-50
2022/09/21 08:56:58;;;;;;;1.65;0.50;;;13.00;99.90;;;;;;5009724;28;20026;-52
2022/09/21 08:59:24;;;;;;;6.75;3.20;;;13.00;99.90;;;;;;5009520;28;20029;-56
2022/09/21 09:02:00;;;;;;;1.80;1.45;;;13.10;99.90;;;;;;5009576;28;20381;-50
2022/09/21 09:04:47;;;;;;;1.65;1.27;;;13.10;99.90;;;;;;5010105;28;20018;-51
2022/09/21 09:07:34;;;;;;;4.15;1.10;;;13.10;99.90;;;;;;5009352;28;20076;-50
2022/09/21 09:10:30;;;;;;;1.40;0.88;;;13.20;99.90;;;;;;5006185;28;20057;-52
2022/09/21 09:13:17;;;;;;;0.73;0.73;;;13.20;99.90;;;;;;5009150;28;20503;-50
2022/09/21 09:15:58;;;;;;;0.60;0.60;;;13.30;99.90;;;;;;5009540;28;20249;-50
2022/09/21 09:18:51;;;;;;;0.90;0.85;;;13.30;99.90;;;;;;5008528;28;20515;-52
2022/09/21 09:21:23;;;;;;;1.67;1.20;;;13.30;99.90;;;;;;5004584;28;20040;-52
2022/09/21 09:24:08;;;;;;;1.55;0.60;;;13.30;99.90;;;;;;5009401;28;20396;-55
2022/09/21 09:26:51;;;;;;;2.47;1.17;;;13.30;99.90;;;;;;5009816;28;20029;-51
2022/09/21 09:29:57;;;;;;;2.03;0.75;;;13.40;99.90;;;;;;4993716;28;20022;-55
2022/09/21 09:32:30;;;;;;;0.75;0.63;;;13.40;99.90;;;;;;4995755;28;20365;-53
2022/09/21 09:35:14;;;;;;;2.25;0.60;;;13.50;99.90;;;;;;5009474;28;20026;-51
2022/09/21 09:37:42;;;;;;;0.73;0.70;;;13.50;99.90;;;;;;5009699;28;20025;-50
2022/09/21 09:40:11;;;;;;;0.80;0.57;;;13.60;99.90;;;;;;5009516;28;20126;-56
2022/09/21 09:42:52;;;;;;;1.13;0.60;;;13.60;99.90;;;;;;5009808;28;20510;-50
2022/09/21 09:45:32;;;;;;;6.18;4.00;;;13.60;99.90;;;;;;5002461;28;20022;-57
2022/09/21 09:48:11;;;;;;;1.70;0.63;;;13.70;99.90;;;;;;5009208;28;20026;-52
2022/09/21 09:50:40;;;;;;;2.00;0.55;;;13.80;99.90;;;;;;5009317;28;20026;-53
2022/09/21 09:53:11;;;;;;;2.13;0.65;;;13.80;99.90;;;;;;5009116;28;20172;-53
2022/09/21 09:55:59;;;;;;;1.05;0.70;;;13.90;99.90;;;;;;5009168;28;20021;-53
2022/09/21 09:58:40;;;;;;;1.42;0.60;;;13.90;99.90;;;;;;4988013;28;20040;-50
2022/09/21 10:01:05;;;;;;;0.57;0.57;;;13.90;99.90;;;;;;5008918;28;20104;-49
2022/09/21 10:03:32;;;;;;;0.73;0.55;;;14.00;99.90;;;;;;5008926;28;20160;-50
2022/09/21 10:05:57;;;;;;;1.92;0.70;;;14.00;99.90;;;;;;5008224;28;20396;-50
2022/09/21 10:08:35;;;;;;;1.17;0.85;;;14.10;99.90;;;;;;5009002;28;20029;-50
2022/09/21 10:11:02;;;;;;;2.47;0.95;;;14.10;99.90;;;;;;5009094;28;20026;-52
2022/09/21 10:13:36;;;;;;;0.93;0.65;;;14.30;99.90;;;;;;5012200;28;20132;-51
2022/09/21 10:16:16;;;;;;;0.77;0.77;;;14.40;99.90;;;;;;4994353;28;20026;-52
2022/09/21 10:18:55;;;;;;;4.75;0.88;;;14.50;99.90;;;;;;5012876;28;20030;-49
2022/09/21 10:21:28;;;;;;;1.13;0.60;;;14.50;99.90;;;;;;5008745;28;20021;-53
2022/09/21 10:24:03;;;;;;;0.50;0.50;;;14.60;99.90;;;;;;5012608;28;20037;-52
2022/09/21 10:26:37;;;;;;;0.60;0.55;;;14.60;99.90;;;;;;5012520;28;20026;-49
2022/09/21 10:29:21;;;;;;;0.55;0.40;;;14.70;99.90;;;;;;5012040;28;20026;-56
2022/09/21 10:31:57;;;;;;;1.50;0.70;;;14.70;99.90;;;;;;5003602;28;20030;-51
2022/09/21 10:34:26;;;;;;;1.50;0.90;;;14.70;99.90;;;;;;5000001;28;20377;-58
2022/09/21 10:36:55;;;;;;;0.80;0.70;;;14.70;99.90;;;;;;5006482;28;20018;-50
2022/09/21 10:39:27;;;;;;;1.60;0.60;;;14.60;99.90;;;;;;5012350;28;20116;-51
2022/09/21 10:42:06;;;;;;;0.60;0.60;;;14.60;99.90;;;;;;4994052;28;20018;-50
2022/09/21 10:44:49;;;;;;;2.50;0.80;;;14.60;99.90;;;;;;5012242;28;20488;-55
2022/09/21 10:47:29;;;;;;;1.15;0.80;;;14.70;99.90;;;;;;4996664;28;20026;-50
2022/09/21 10:49:59;;;;;;;0.77;0.70;;;14.70;99.90;;;;;;5012600;28;20444;-51
2022/09/21 10:52:37;;;;;;;0.50;0.50;;;14.70;99.90;;;;;;5012102;28;20427;-50
2022/09/21 10:55:04;;;;;;;3.03;0.70;;;14.70;99.90;;;;;;5012106;28;20436;-52
2022/09/21 10:57:31;;;;;;;1.15;0.60;;;14.70;99.90;;;;;;5011721;28;20478;-53
2022/09/21 10:59:58;;;;;;;0.80;0.50;;;14.80;99.90;;;;;;5012054;28;20052;-50
2022/09/21 11:02:30;;;;;;;1.45;0.40;;;14.80;99.90;;;;;;5011329;28;20014;-53
2022/09/21 11:05:26;;;;;;;0.70;0.70;;;14.80;99.90;;;;;;5011858;28;20443;-49
2022/09/21 11:08:10;;;;;;;1.52;0.90;;;14.90;99.90;;;;;;5010838;28;20022;-52
2022/09/21 11:11:06;;;;;;;1.00;0.63;;;14.90;99.90;;;;;;5012268;28;20022;-50
2022/09/21 11:13:41;;;;;;;1.10;0.60;;;15.10;99.90;;;;;;5000230;28;20026;-51
2022/09/21 11:16:35;;;;;;;1.33;0.85;;;15.20;99.90;;;;;;5011685;28;20096;-52
2022/09/21 11:19:36;;;;;;;1.00;0.88;;;15.20;99.90;;;;;;5011838;28;20384;-49
2022/09/21 11:22:34;;;;;;;1.58;0.80;;;15.30;99.90;;;;;;5008921;28;20448;-51
2022/09/21 11:25:32;;;;;;;3.05;1.10;;;15.40;99.90;;;;;;4992684;28;20053;-50
2022/09/21 11:28:14;;;;;;;0.98;0.60;;;15.50;99.90;;;;;;5010899;28;20038;-51
2022/09/21 11:31:00;;;;;;;0.55;0.45;;;15.60;99.90;;;;;;5011269;28;20022;-54
2022/09/21 11:33:58;;;;;;;1.45;0.77;;;15.50;99.90;;;;;;5010942;28;20022;-52
2022/09/21 11:36:42;;;;;;;1.27;0.63;;;15.50;99.90;;;;;;5003860;28;20052;-52
2022/09/21 11:39:25;;;;;;;2.40;1.40;;;15.40;99.90;;;;;;5011160;28;20026;-51
2022/09/21 11:42:28;;;;;;;4.95;3.60;;;15.40;99.90;;;;;;5010907;28;20118;-50
2022/09/21 11:45:00;;;;;;;1.25;0.98;;;15.50;99.90;;;;;;5011298;28;20030;-52
2022/09/21 11:47:49;;;;;;;1.90;1.00;;;15.50;99.90;;;;;;5011156;28;20025;-52
2022/09/21 11:50:27;;;;;;;7.72;3.38;;;15.50;99.90;;;;;;5009453;28;20101;-52
2022/09/21 11:53:18;;;;;;;49.83;21.60;;;15.50;99.90;;;;;;5011249;28;20021;-52
2022/09/21 11:55:59;;;;;;;11.38;5.22;;;15.50;99.90;;;;;;5002895;28;20033;-50
2022/09/21 11:58:42;;;;;;;35.03;14.85;;;15.60;99.90;;;;;;5001839;28;20018;-51
2022/09/21 12:01:27;;;;;;;8.40;5.18;;;15.70;99.90;;;;;;5011089;28;20022;-58
2022/09/21 12:04:18;;;;;;;1.40;1.10;;;15.80;99.90;;;;;;5010914;28;20030;-51
2022/09/21 12:07:02;;;;;;;1.95;1.00;;;15.80;99.90;;;;;;5010281;28;20034;-55
2022/09/21 12:09:46;;;;;;;1.45;0.80;;;15.90;99.90;;;;;;5007471;28;20117;-52
2022/09/21 12:12:40;;;;;;;2.80;1.35;;;15.90;99.90;;;;;;5010598;28;20048;-52
2022/09/21 12:15:46;;;;;;;1.48;0.95;;;15.90;99.90;;;;;;5008619;28;20037;-51
2022/09/21 12:18:52;;;;;;;2.30;0.95;;;15.90;99.90;;;;;;5010650;28;20088;-53
2022/09/21 12:21:30;;;;;;;1.85;0.80;;;15.90;99.90;;;;;;5006003;28;20550;-54
2022/09/21 12:23:58;;;;;;;2.97;2.47;;;15.80;99.90;;;;;;5010909;28;20034;-53
2022/09/21 12:26:33;;;;;;;1.65;0.70;;;15.80;99.90;;;;;;5010804;28;20373;-50
2022/09/21 12:29:18;;;;;;;1.27;0.90;;;15.80;99.90;;;;;;5010057;28;20033;-53
2022/09/21 12:31:55;;;;;;;2.13;0.70;;;15.80;99.90;;;;;;5010053;28;20026;-51
2022/09/21 12:34:26;;;;;;;1.05;0.70;;;15.90;99.90;;;;;;4997299;28;20480;-51
2022/09/21 12:37:16;;;;;;;0.98;0.88;;;15.80;99.90;;;;;;5010493;28;20026;-51
2022/09/21 12:39:52;;;;;;;0.95;0.50;;;15.90;99.90;;;;;;5010162;28;20038;-54
2022/09/21 12:42:33;;;;;;;0.60;0.60;;;15.80;97.90;;;;;;4995192;28;20033;-52
2022/09/21 12:45:12;;;;;;;1.02;0.50;;;15.80;98.90;;;;;;5010243;28;20080;-56
2022/09/21 12:47:56;;;;;;;1.25;0.77;;;15.90;99.90;;;;;;5010129;28;20060;-55
2022/09/21 12:50:43;;;;;;;1.20;0.70;;;15.90;99.90;;;;;;5008785;28;20022;-51
2022/09/21 12:53:17;;;;;;;1.27;0.93;;;16.00;99.90;;;;;;5010046;28;20262;-54
2022/09/21 12:56:11;;;;;;;0.70;0.50;;;16.00;99.90;;;;;;5001936;28;20030;-52
2022/09/21 12:58:56;;;;;;;2.53;0.93;;;16.00;99.80;;;;;;5003908;28;20091;-51
2022/09/21 13:01:37;;;;;;;0.45;0.30;;;16.10;97.70;;;;;;5009611;28;20022;-51
2022/09/21 13:04:30;;;;;;;0.57;0.40;;;16.10;97.30;;;;;;5009835;28;20144;-54
2022/09/21 13:07:10;;;;;;;3.10;0.85;;;16.20;97.60;;;;;;5009935;28;20413;-55
2022/09/21 13:09:42;;;;;;;1.08;0.80;;;16.20;97.40;;;;;;5008627;28;20026;-57
2022/09/21 13:12:18;;;;;;;0.75;0.70;;;16.20;98.10;;;;;;5009528;28;20439;-53
2022/09/21 13:14:46;;;;;;;;;;;16.30;98.20;;;;;;5010052;28;20026;-56
2022/09/21 13:17:23;;;;;;;0.60;0.60;;;16.30;98.50;;;;;;5009466;28;20343;-53
2022/09/21 13:20:00;;;;;;;1.00;0.80;;;16.20;97.10;;;;;;5009539;28;20018;-58
2022/09/21 13:22:36;;;;;;;0.90;0.50;;;16.20;98.20;;;;;;5009281;28;20014;-51
2022/09/21 13:25:18;;;;;;;0.65;0.60;;;16.20;99.00;;;;;;5006404;28;20507;-51
2022/09/21 13:28:08;;;;;;;2.58;0.70;;;16.30;99.10;;;;;;5009190;28;20056;-54